Time;durP1;ratioP1;P1;durP2;ratioP2;P2;SDS_P1;SDS_P2;PMS_P1;PMS_P2;Temp;Humidity;BMP_temperature;BMP_pressure;BME280_temperature;BME280_humidity;BME280_pressure;Samples;Min_cycle;Max_cycle;Signal;HPM_P1;HPM_P2
2022/05/08 00:02:19;;;;;;;7.40;5.70;;;;;;;7.73;84.06;96118.91;1789479;80;21019;-69
2022/05/08 00:04:50;;;;;;;6.53;5.00;;;;;;;7.72;83.47;96125.05;1788840;79;21034;-70
2022/05/08 00:07:15;;;;;;;6.10;5.10;;;;;;;7.73;83.27;96120.23;1789420;79;21456;-70
2022/05/08 00:09:41;;;;;;;5.83;4.57;;;;;;;7.69;83.37;96113.23;1789441;79;21071;-69
2022/05/08 00:12:13;;;;;;;8.37;5.10;;;;;;;7.70;83.03;96113.66;1789365;79;21461;-69
2022/05/08 00:14:44;;;;;;;5.77;4.73;;;;;;;7.67;83.37;96118.05;1789468;80;21485;-69
2022/05/08 00:17:13;;;;;;;11.20;5.20;;;;;;;7.65;83.52;96112.78;1789475;79;21035;-69
2022/05/08 00:19:43;;;;;;;6.03;4.50;;;;;;;7.74;83.66;96111.94;1789160;80;21042;-69
2022/05/08 00:22:11;;;;;;;6.50;4.47;;;;;;;7.82;83.67;96107.55;1788454;80;21030;-69
2022/05/08 00:24:38;;;;;;;6.63;4.30;;;;;;;7.80;83.16;96106.23;1789136;79;20971;-69
2022/05/08 00:27:06;;;;;;;6.93;3.97;;;;;;;7.80;83.27;96106.23;1789509;80;20983;-69
2022/05/08 00:29:33;;;;;;;5.67;4.03;;;;;;;7.84;83.16;96109.75;1789448;80;21002;-69
2022/05/08 00:32:00;;;;;;;7.00;4.60;;;;;;;7.75;82.36;96111.92;1789078;79;21011;-69
2022/05/08 00:34:27;;;;;;;9.90;4.50;;;;;;;7.65;82.24;96107.98;1789151;79;21074;-69
2022/05/08 00:36:54;;;;;;;5.63;4.23;;;;;;;7.66;82.90;96109.72;1789129;79;21010;-69
2022/05/08 00:39:22;;;;;;;6.53;4.10;;;;;;;7.69;82.76;96109.75;1789070;80;20999;-70
2022/05/08 00:41:48;;;;;;;7.87;4.80;;;;;;;7.68;82.94;96105.34;1789452;79;21473;-69
2022/05/08 00:44:15;;;;;;;7.67;4.37;;;;;;;7.70;82.75;96104.91;1789242;79;21003;-69
2022/05/08 00:46:41;;;;;;;5.13;3.90;;;;;;;7.69;82.52;96103.17;1789413;80;20975;-69
2022/05/08 00:49:08;;;;;;;4.73;4.03;;;;;;;7.59;81.99;96097.91;1789006;80;21011;-70
2022/05/08 00:51:36;;;;;;;4.97;4.10;;;;;;;7.53;82.17;96098.33;1789287;79;20983;-69
2022/05/08 00:54:04;;;;;;;5.43;3.80;;;;;;;7.49;82.49;96101.39;1789241;79;21063;-69
2022/05/08 00:56:31;;;;;;;8.63;4.50;;;;;;;7.49;82.93;96097.45;1789325;80;21050;-69
2022/05/08 00:58:58;;;;;;;5.40;4.10;;;;;;;7.47;82.33;96096.58;1780847;79;20988;-69
2022/05/08 01:01:25;;;;;;;5.53;3.90;;;;;;;7.49;82.83;96089.58;1780735;80;21512;-69
2022/05/08 01:03:52;;;;;;;5.80;4.13;;;;;;;7.43;83.01;96093.94;1781002;80;21023;-69
2022/05/08 01:06:19;;;;;;;10.83;4.53;;;;;;;7.37;82.87;96090.87;1780696;80;20999;-69
2022/05/08 01:08:49;;;;;;;6.30;5.33;;;;;;;7.40;83.49;96092.63;1780828;80;21007;-69
2022/05/08 01:11:17;;;;;;;9.83;7.73;;;;;;;7.49;83.58;96095.27;1780720;80;21473;-69
2022/05/08 01:13:45;;;;;;;7.63;5.20;;;;;;;7.55;83.46;96095.27;1780304;81;21026;-69
2022/05/08 01:16:15;;;;;;;5.23;4.50;;;;;;;7.54;82.89;96096.16;1780855;80;20963;-69
2022/05/08 01:18:44;;;;;;;5.43;4.50;;;;;;;7.50;82.29;96099.64;1780745;80;21011;-69
2022/05/08 01:21:15;;;;;;;6.30;4.07;;;;;;;7.43;82.28;96095.25;1780629;80;21496;-70
2022/05/08 01:23:43;;;;;;;4.53;3.87;;;;;;;7.35;81.97;96093.48;1780582;81;21082;-70
2022/05/08 01:26:09;;;;;;;8.30;5.10;;;;;;;7.30;81.95;96099.60;1780755;80;21449;-69
2022/05/08 01:28:37;;;;;;;5.20;4.33;;;;;;;7.23;81.86;96100.45;1780688;80;20995;-69
2022/05/08 01:31:04;;;;;;;5.80;4.07;;;;;;;7.13;81.82;96095.61;1780990;80;20991;-69
2022/05/08 01:33:31;;;;;;;8.40;4.80;;;;;;;7.06;82.01;96099.98;1780693;80;21557;-69
2022/05/08 01:35:58;;;;;;;5.50;4.60;;;;;;;6.98;82.07;96100.81;1780505;80;21054;-69
2022/05/08 01:38:24;;;;;;;7.63;5.00;;;;;;;6.86;83.18;96104.29;1780801;80;21042;-69
2022/05/08 01:40:51;;;;;;;7.73;5.23;;;;;;;6.80;83.64;96099.87;1780820;80;20991;-69
2022/05/08 01:43:18;;;;;;;6.33;5.33;;;;;;;6.79;83.62;96101.19;1780295;81;21050;-69
2022/05/08 01:45:47;;;;;;;6.13;5.00;;;;;;;6.75;83.64;96100.28;1780933;80;20998;-69
2022/05/08 01:48:23;;;;;;;7.83;4.60;;;;;;;6.68;84.12;96105.09;1780702;80;21011;-69
2022/05/08 01:50:58;;;;;;;5.67;4.67;;;;;;;6.65;84.38;96102.42;1750458;80;21015;-70
2022/05/08 01:53:31;;;;;;;5.67;4.27;;;;;;;6.64;83.72;96102.00;1780699;80;21046;-69
2022/05/08 01:55:59;;;;;;;13.13;4.60;;;;;;;6.63;83.80;96097.20;1780401;80;20998;-70
2022/05/08 01:58:28;;;;;;;4.73;4.23;;;;;;;6.56;83.84;96098.47;1786348;80;21014;-70
2022/05/08 02:00:57;;;;;;;4.93;4.23;;;;;;;6.40;83.78;96094.87;1789826;80;21027;-69
2022/05/08 02:03:24;;;;;;;6.90;4.20;;;;;;;6.35;83.68;96100.11;1789680;80;21554;-70
2022/05/08 02:05:52;;;;;;;7.33;4.77;;;;;;;6.38;84.14;96097.94;1789705;80;21054;-70
2022/05/08 02:08:19;;;;;;;5.13;4.63;;;;;;;6.42;83.93;96102.31;1789967;80;21485;-69
2022/05/08 02:10:47;;;;;;;6.43;4.77;;;;;;;6.49;84.28;96094.93;1789719;80;21014;-70
2022/05/08 02:13:15;;;;;;;5.47;4.53;;;;;;;6.55;84.06;96098.01;1789852;80;21002;-69
2022/05/08 02:15:42;;;;;;;6.23;4.77;;;;;;;6.61;84.22;96093.69;1789711;80;21046;-69
2022/05/08 02:18:11;;;;;;;7.37;4.83;;;;;;;6.69;84.37;96093.27;1789693;80;21039;-69
2022/05/08 02:20:41;;;;;;;5.57;4.50;;;;;;;6.73;84.17;96088.94;1789584;80;21472;-69
2022/05/08 02:23:09;;;;;;;4.40;4.00;;;;;;;6.80;84.27;96092.44;1789877;80;21037;-69
2022/05/08 02:25:37;;;;;;;5.83;4.30;;;;;;;6.78;83.59;96089.83;1789583;80;21026;-69
2022/05/08 02:28:04;;;;;;;4.40;3.93;;;;;;;6.72;83.41;96096.34;1789887;80;21050;-69
2022/05/08 02:30:31;;;;;;;6.53;3.83;;;;;;;6.66;83.30;96095.02;1789936;80;20991;-70
2022/05/08 02:32:58;;;;;;;5.23;4.13;;;;;;;6.60;83.33;96099.81;1789843;80;20995;-69
2022/05/08 02:35:25;;;;;;;4.80;3.90;;;;;;;6.55;83.32;96098.91;1789807;80;21085;-70
2022/05/08 02:37:54;;;;;;;6.77;4.43;;;;;;;6.55;83.66;96101.94;1789668;80;21066;-70
2022/05/08 02:40:22;;;;;;;4.60;4.10;;;;;;;6.54;83.81;96105.44;1789925;80;20955;-69
2022/05/08 02:42:50;;;;;;;7.37;4.00;;;;;;;6.59;84.11;96101.10;1789965;80;21066;-70
2022/05/08 02:45:16;;;;;;;5.67;4.10;;;;;;;6.61;84.00;96097.62;1789886;80;21053;-70
2022/05/08 02:47:44;;;;;;;5.57;4.47;;;;;;;6.61;83.94;96100.23;1789998;80;21457;-70
2022/05/08 02:50:12;;;;;;;4.60;4.10;;;;;;;6.64;84.01;96100.69;1790060;80;20979;-69
2022/05/08 02:52:41;;;;;;;4.90;3.90;;;;;;;6.60;83.56;96098.91;1789877;80;21078;-69
2022/05/08 03:00:45;;;;;;;6.70;4.40;;;;;;;6.59;84.14;96102.41;1789904;80;21034;-69
2022/05/08 03:03:13;;;;;;;6.90;4.57;;;;;;;6.60;84.29;96106.37;1790017;80;20975;-69
2022/05/08 03:05:46;;;;;;;5.07;4.30;;;;;;;6.70;84.51;96103.32;1789822;80;21513;-71
2022/05/08 03:08:15;;;;;;;10.20;3.85;;;;;;;6.74;83.93;96110.34;1790036;80;20991;-70
2022/05/08 03:13:27;;;;;;;5.40;4.13;;;;;;;6.80;83.79;96102.49;1789987;80;20999;-70
2022/05/08 03:15:53;;;;;;;7.67;4.03;;;;;;;6.81;83.31;96110.82;1789913;80;21039;-69
2022/05/08 03:18:20;;;;;;;4.00;3.60;;;;;;;6.77;83.07;96109.05;1790029;80;20999;-69
2022/05/08 03:20:47;;;;;;;10.27;4.23;;;;;;;6.73;83.05;96111.23;1789814;80;21013;-70
2022/05/08 03:23:14;;;;;;;6.13;3.70;;;;;;;6.68;82.74;96115.14;1789921;80;21022;-69
2022/05/08 03:25:42;;;;;;;4.30;3.60;;;;;;;6.68;83.03;96107.71;1790024;80;21505;-69
2022/05/08 03:28:09;;;;;;;7.00;3.90;;;;;;;6.65;83.03;96108.58;1790100;80;20983;-70
2022/05/08 03:30:36;;;;;;;7.00;3.80;;;;;;;6.62;83.19;96109.84;1789990;80;21075;-69
2022/05/08 03:33:02;;;;;;;9.90;3.57;;;;;;;6.65;83.34;96110.30;1790058;79;20995;-69
2022/05/08 03:35:29;;;;;;;7.47;4.27;;;;;;;6.70;83.90;96112.09;1789830;80;21474;-69
2022/05/08 03:37:56;;;;;;;4.17;3.37;;;;;;;6.80;84.00;96113.42;1789845;80;21015;-69
2022/05/08 03:40:25;;;;;;;17.43;8.10;;;;;;;6.78;84.13;96118.69;1790056;80;21003;-69
2022/05/08 03:42:51;;;;;;;22.43;11.27;;;;;;;6.88;84.25;96116.98;1789824;80;20982;-69
2022/05/08 03:45:18;;;;;;;23.20;11.03;;;;;;;6.90;83.77;96113.91;1790076;79;20983;-69
2022/05/08 03:47:45;;;;;;;10.50;4.80;;;;;;;7.02;83.74;96110.45;1790038;80;21014;-69
2022/05/08 03:50:12;;;;;;;6.17;4.07;;;;;;;7.04;83.30;96112.66;1790049;80;21046;-69
2022/05/08 03:52:38;;;;;;;4.90;3.77;;;;;;;7.06;83.87;96110.48;1789754;80;21441;-70
2022/05/08 03:55:06;;;;;;;9.37;5.27;;;;;;;7.13;83.79;96116.60;1789856;80;21018;-70
2022/05/08 03:57:33;;;;;;;29.53;16.37;;;;;;;7.23;84.09;96117.10;1789783;80;21046;-70
2022/05/08 03:59:59;;;;;;;18.17;11.70;;;;;;;7.37;83.84;96119.30;1790027;80;21042;-70
2022/05/08 04:02:26;;;;;;;20.70;10.37;;;;;;;7.35;82.15;96121.05;1789772;80;21069;-70
2022/05/08 04:04:54;;;;;;;6.63;5.50;;;;;;;7.30;82.72;96120.16;1789975;79;21453;-69
2022/05/08 04:07:20;;;;;;;6.93;5.43;;;;;;;7.37;83.36;96121.93;1789922;80;20994;-69
2022/05/08 04:09:49;;;;;;;5.67;4.70;;;;;;;7.51;83.80;96128.53;1776741;80;21050;-69
2022/05/08 04:12:15;;;;;;;13.20;8.60;;;;;;;7.56;84.05;96120.67;1790016;80;21038;-69
2022/05/08 04:14:42;;;;;;;12.90;8.47;;;;;;;7.57;84.40;96121.97;1789822;80;21015;-69
2022/05/08 04:17:08;;;;;;;14.47;10.67;;;;;;;7.64;84.45;96121.55;1789849;80;20963;-69
2022/05/08 04:19:35;;;;;;;20.30;11.40;;;;;;;7.71;84.53;96124.62;1790053;80;21018;-70
2022/05/08 04:24:47;;;;;;;11.17;8.20;;;;;;;7.90;84.45;96122.88;1789899;79;21019;-69
2022/05/08 04:27:14;;;;;;;12.03;8.37;;;;;;;8.02;84.35;96119.38;1790016;80;21460;-69
2022/05/08 04:29:40;;;;;;;9.57;7.33;;;;;;;8.12;84.38;96120.26;1790051;80;21007;-69
2022/05/08 04:32:07;;;;;;;9.57;7.43;;;;;;;8.20;84.30;96122.44;1789855;80;21517;-70
2022/05/08 04:34:34;;;;;;;10.37;8.43;;;;;;;8.30;84.16;96122.86;1789841;80;21058;-70
2022/05/08 04:37:01;;;;;;;12.40;8.70;;;;;;;8.40;83.85;96125.08;1789890;80;21429;-70
2022/05/08 04:39:27;;;;;;;9.67;7.40;;;;;;;8.47;83.93;96126.82;1789793;80;21015;-70
2022/05/08 04:41:54;;;;;;;10.07;7.03;;;;;;;8.54;83.86;96121.98;1789865;80;21038;-70
2022/05/08 04:44:22;;;;;;;9.87;7.60;;;;;;;8.62;84.12;96128.55;1789641;80;21459;-70
2022/05/08 04:46:48;;;;;;;10.17;7.87;;;;;;;8.71;83.97;96123.69;1789789;80;21034;-70
2022/05/08 04:49:15;;;;;;;11.03;6.87;;;;;;;8.81;83.99;96125.41;1789822;80;21006;-70
2022/05/08 04:51:42;;;;;;;11.30;7.77;;;;;;;8.87;84.19;96129.35;1789664;80;21416;-70
2022/05/08 04:54:08;;;;;;;13.87;7.93;;;;;;;8.97;84.34;96117.00;1789938;80;21011;-70
2022/05/08 04:56:35;;;;;;;13.47;8.90;;;;;;;9.05;84.59;96130.59;1790034;80;21022;-69
2022/05/08 04:59:02;;;;;;;13.10;8.57;;;;;;;9.22;84.42;96124.36;1784660;80;21022;-69
2022/05/08 05:01:29;;;;;;;12.10;8.50;;;;;;;9.39;84.22;96125.59;1780862;80;21015;-69
2022/05/08 05:03:56;;;;;;;10.20;8.13;;;;;;;9.56;84.14;96130.33;1780588;80;21074;-69
2022/05/08 05:06:23;;;;;;;8.97;7.13;;;;;;;9.74;83.90;96135.92;1780666;80;21010;-69
2022/05/08 05:08:49;;;;;;;7.37;6.33;;;;;;;9.88;83.50;96133.20;1780715;80;21532;-69
2022/05/08 05:11:16;;;;;;;8.73;6.17;;;;;;;10.01;83.42;96134.86;1780725;80;21023;-69
2022/05/08 05:13:42;;;;;;;13.87;6.60;;;;;;;10.17;83.30;96134.28;1780754;80;21465;-70
2022/05/08 05:16:09;;;;;;;7.45;6.08;;;;;;;10.32;83.24;96137.27;1780708;80;21054;-70
2022/05/08 05:18:35;;;;;;;12.17;6.77;;;;;;;10.52;83.06;96134.44;1780714;80;21078;-70
2022/05/08 05:21:02;;;;;;;8.65;7.30;;;;;;;10.68;82.65;96136.47;1780679;80;21012;-69
2022/05/08 05:23:29;;;;;;;10.43;7.00;;;;;;;10.85;82.40;96126.61;1780558;80;21054;-70
2022/05/08 05:25:56;;;;;;;10.23;6.70;;;;;;;11.03;81.75;96131.67;1780842;80;21003;-70
2022/05/08 05:28:22;;;;;;;9.08;6.47;;;;;;;11.22;81.30;96127.05;1780557;80;20971;-70
2022/05/08 05:30:49;;;;;;;8.18;6.28;;;;;;;11.40;81.41;96128.59;1780824;80;20991;-70
2022/05/08 05:33:18;;;;;;;7.37;5.50;;;;;;;11.60;81.29;96131.41;1780693;80;21006;-70
2022/05/08 05:35:45;;;;;;;10.10;5.83;;;;;;;11.77;80.47;96129.83;1780933;80;21003;-69
2022/05/08 05:38:11;;;;;;;6.45;5.20;;;;;;;11.94;79.78;96129.62;1780655;80;21011;-69
2022/05/08 05:40:38;;;;;;;10.72;5.70;;;;;;;12.12;79.90;96120.09;1780591;80;20991;-69
2022/05/08 05:43:05;;;;;;;7.85;5.20;;;;;;;12.29;79.79;96130.38;1780719;80;21126;-69
2022/05/08 05:45:31;;;;;;;7.33;5.03;;;;;;;12.44;79.41;96130.11;1780700;80;20995;-70
2022/05/08 05:48:00;;;;;;;7.72;5.33;;;;;;;12.61;78.61;96132.92;1780650;80;20999;-70
2022/05/08 05:50:28;;;;;;;7.42;5.78;;;;;;;12.72;78.53;96129.16;1780912;80;21003;-70
2022/05/08 05:52:55;;;;;;;8.48;6.10;;;;;;;12.85;76.85;96123.64;1780574;80;21019;-70
2022/05/08 05:55:22;;;;;;;8.68;6.00;;;;;;;12.93;76.38;96124.39;1780872;80;20990;-70
2022/05/08 05:57:48;;;;;;;8.85;6.08;;;;;;;13.06;76.83;96127.67;1780615;80;21050;-70
2022/05/08 06:00:19;;;;;;;12.45;5.70;;;;;;;13.17;76.57;96121.69;1784857;80;21034;-70
2022/05/08 06:02:47;;;;;;;6.78;5.40;;;;;;;13.25;74.74;96118.42;1789016;79;21086;-70
2022/05/08 06:05:15;;;;;;;8.43;5.28;;;;;;;13.39;75.15;96116.86;1789224;79;21018;-70
2022/05/08 06:07:44;;;;;;;7.30;5.70;;;;;;;13.55;75.45;96121.37;1789151;80;21015;-70
2022/05/08 06:10:12;;;;;;;7.15;5.65;;;;;;;13.71;75.14;96117.92;1789297;80;21054;-70
2022/05/08 06:12:41;;;;;;;10.23;5.80;;;;;;;13.80;74.04;96116.39;1759069;80;21093;-70
2022/05/08 06:15:09;;;;;;;6.15;5.45;;;;;;;13.96;74.42;96123.53;1789239;79;21003;-69
2022/05/08 06:17:36;;;;;;;6.65;5.53;;;;;;;14.07;73.39;96125.50;1789132;80;21061;-70
2022/05/08 06:20:04;;;;;;;90.30;68.17;;;;;;;14.12;73.02;96114.78;1789343;79;21014;-69
2022/05/08 06:22:33;;;;;;;39.53;32.58;;;;;;;14.23;72.85;96124.20;1788924;80;21445;-70
2022/05/08 06:25:00;;;;;;;13.15;8.45;;;;;;;14.37;73.07;96120.36;1789314;80;20995;-69
2022/05/08 06:27:27;;;;;;;7.58;5.50;;;;;;;14.47;72.78;96120.55;1789226;79;21043;-69
2022/05/08 06:29:53;;;;;;;8.35;5.60;;;;;;;14.56;72.15;96128.28;1789181;79;21019;-70
2022/05/08 06:32:21;;;;;;;5.90;5.20;;;;;;;14.67;72.18;96124.91;1789333;79;21015;-70
2022/05/08 06:34:48;;;;;;;7.00;5.22;;;;;;;14.85;72.41;96126.20;1789187;79;20972;-70
2022/05/08 06:37:14;;;;;;;5.60;5.10;;;;;;;14.97;71.76;96115.71;1789075;80;21058;-70
2022/05/08 06:39:41;;;;;;;6.05;5.12;;;;;;;15.08;71.78;96122.05;1789225;80;21003;-70
2022/05/08 06:42:08;;;;;;;6.08;5.08;;;;;;;15.23;71.25;96120.75;1789351;79;20980;-70
2022/05/08 06:44:36;;;;;;;6.03;4.97;;;;;;;15.36;70.46;96119.47;1788629;80;21516;-70
2022/05/08 06:47:04;;;;;;;6.25;4.87;;;;;;;15.39;68.76;96111.41;1789368;79;21031;-70
2022/05/08 06:49:31;;;;;;;6.37;5.83;;;;;;;15.44;68.06;96118.78;1788956;79;21023;-70
2022/05/08 06:51:57;;;;;;;6.55;4.55;;;;;;;15.57;65.43;96117.96;1789003;79;21432;-70
2022/05/08 06:54:26;;;;;;;7.37;5.65;;;;;;;15.57;65.43;96117.96;1789205;80;21014;-70
2022/05/08 06:56:53;;;;;;;6.00;4.80;;;;;;;15.68;66.57;96109.69;1789227;79;21019;-70
2022/05/08 07:02:05;;;;;;;6.58;5.12;;;;;;;15.93;66.03;96116.48;1789440;79;21050;-69
2022/05/08 07:04:31;;;;;;;7.17;5.00;;;;;;;16.28;63.29;96111.80;1789429;79;21006;-69
2022/05/08 07:06:58;;;;;;;7.37;4.75;;;;;;;16.28;63.29;96111.80;1789417;80;21074;-69
2022/05/08 07:09:25;;;;;;;7.08;4.40;;;;;;;16.40;62.78;96110.96;1789164;79;20958;-69
2022/05/08 07:11:51;;;;;;;6.15;4.35;;;;;;;16.54;62.89;96113.15;1789168;80;21532;-70
2022/05/08 07:14:18;;;;;;;6.65;4.28;;;;;;;16.68;60.08;96113.99;1789197;79;21030;-70
2022/05/08 07:16:45;;;;;;;6.08;4.50;;;;;;;16.87;61.35;96103.62;1789226;79;20983;-70
2022/05/08 07:19:12;;;;;;;7.85;4.62;;;;;;;17.04;59.18;96107.03;1789170;80;21002;-70
2022/05/08 07:21:39;;;;;;;6.78;4.20;;;;;;;17.15;58.65;96103.97;1789221;79;21062;-70
2022/05/08 07:24:07;;;;;;;5.33;4.20;;;;;;;17.26;54.02;96094.66;1789209;80;21014;-68
2022/05/08 07:26:33;;;;;;;5.95;4.40;;;;;;;17.38;54.22;96103.98;1789133;79;21051;-68
2022/05/08 07:29:00;;;;;;;6.90;4.28;;;;;;;17.50;54.86;96105.33;1789592;80;20963;-68
2022/05/08 07:31:27;;;;;;;6.58;4.33;;;;;;;17.58;55.13;96109.91;1789070;80;21014;-68
2022/05/08 07:36:39;;;;;;;4.55;4.10;;;;;;;17.78;53.76;96110.47;1789266;79;21079;-68
2022/05/08 07:39:06;;;;;;;5.85;4.10;;;;;;;17.83;53.34;96113.00;1789571;79;20987;-68
2022/05/08 07:41:33;;;;;;;5.83;3.80;;;;;;;17.93;51.92;96111.24;1789215;79;20979;-68
2022/05/08 07:44:00;;;;;;;7.58;4.33;;;;;;;18.06;51.40;96114.77;1789410;80;21436;-68
2022/05/08 07:46:26;;;;;;;6.17;4.37;;;;;;;18.13;50.96;96113.13;1789442;79;21002;-68
2022/05/08 07:48:54;;;;;;;8.50;4.33;;;;;;;18.24;51.10;96111.34;1789191;80;21536;-68
2022/05/08 07:51:21;;;;;;;5.30;3.72;;;;;;;18.36;51.10;96112.19;1789070;80;21098;-68
2022/05/08 07:53:47;;;;;;;4.97;3.83;;;;;;;18.49;50.97;96111.21;1789134;80;21464;-68
2022/05/08 07:56:14;;;;;;;5.78;4.10;;;;;;;18.57;48.67;96115.80;1789428;80;21071;-68
2022/05/08 07:58:41;;;;;;;5.92;4.15;;;;;;;18.66;48.97;96117.67;1789292;80;21014;-68
2022/05/08 08:01:08;;;;;;;5.12;3.80;;;;;;;18.81;50.74;96114.37;1789257;79;21053;-68
2022/05/08 08:03:34;;;;;;;6.50;3.75;;;;;;;18.88;48.10;96112.32;1789437;80;21469;-68
2022/05/08 08:06:01;;;;;;;4.33;3.90;;;;;;;18.88;48.38;96113.66;1789430;79;21058;-68
2022/05/08 08:08:28;;;;;;;4.78;4.00;;;;;;;18.95;48.97;96116.44;1789278;80;21499;-68
2022/05/08 08:10:59;;;;;;;6.35;4.20;;;;;;;19.15;49.47;96112.45;1789434;80;21018;-68
2022/05/08 08:13:30;;;;;;;5.70;4.28;;;;;;;19.24;48.51;96114.70;1789536;79;21031;-68
2022/05/08 08:16:01;;;;;;;4.65;3.65;;;;;;;19.29;49.63;96115.84;1789192;79;21492;-68
2022/05/08 08:18:28;;;;;;;4.20;3.80;;;;;;;19.51;49.76;96114.89;1789306;80;21050;-68
2022/05/08 08:20:56;;;;;;;4.67;3.80;;;;;;;19.72;49.16;96109.90;1789038;80;21085;-68
2022/05/08 08:23:23;;;;;;;6.83;3.98;;;;;;;19.89;47.28;96110.45;1788975;79;21006;-68
2022/05/08 08:25:51;;;;;;;5.67;4.03;;;;;;;20.00;48.77;96109.94;1789186;80;21500;-68
2022/05/08 08:28:18;;;;;;;4.87;3.85;;;;;;;20.15;47.02;96111.02;1789395;79;21034;-68
2022/05/08 08:30:45;;;;;;;5.60;3.80;;;;;;;20.18;46.36;96110.39;1788943;80;21324;-68
2022/05/08 08:33:13;;;;;;;4.12;3.72;;;;;;;20.30;48.67;96115.16;1789429;79;21003;-68
2022/05/08 08:35:41;;;;;;;4.75;4.22;;;;;;;20.42;48.60;96114.17;1789100;79;21059;-68
2022/05/08 08:38:09;;;;;;;6.03;4.10;;;;;;;20.63;48.58;96112.27;1789252;79;21006;-68
2022/05/08 08:40:40;;;;;;;6.05;4.17;;;;;;;20.78;49.17;96107.95;1789442;79;21045;-68
2022/05/08 08:43:11;;;;;;;4.60;4.12;;;;;;;20.93;49.28;96105.34;1789402;79;21081;-68
2022/05/08 08:48:34;;;;;;;5.03;4.20;;;;;;;21.06;47.54;96104.23;1789209;79;21118;-68
2022/05/08 08:51:02;;;;;;;5.40;4.15;;;;;;;21.08;47.07;96112.21;1789259;79;20979;-68
2022/05/08 08:53:30;;;;;;;7.00;3.98;;;;;;;21.02;46.57;96115.23;1789164;80;21497;-68
2022/05/08 08:55:59;;;;;;;6.17;4.03;;;;;;;20.97;47.54;96115.45;1789173;79;21050;-68
2022/05/08 08:58:26;;;;;;;7.55;4.03;;;;;;;20.98;46.81;96113.16;1789009;80;21497;-68
2022/05/08 09:00:54;;;;;;;4.85;4.10;;;;;;;20.91;46.31;96119.77;1789202;79;21489;-67
2022/05/08 09:03:25;;;;;;;5.62;4.00;;;;;;;20.93;47.39;96116.55;1789469;79;21438;-68
2022/05/08 09:06:02;;;;;;;7.80;4.10;;;;;;;20.94;47.83;96116.93;1789073;79;21002;-68
2022/05/08 09:08:31;;;;;;;5.22;4.72;;;;;;;20.94;48.21;96119.61;1789374;79;21046;-68
2022/05/08 09:10:59;;;;;;;7.58;4.53;;;;;;;20.96;47.35;96115.94;1788138;80;21008;-68
2022/05/08 09:13:28;;;;;;;7.05;4.08;;;;;;;20.94;47.28;96119.17;1789269;79;21484;-68
2022/05/08 09:16:08;;;;;;;6.75;4.70;;;;;;;20.99;47.67;96122.96;1788251;80;21623;-68
2022/05/08 09:18:47;;;;;;;5.92;4.47;;;;;;;21.04;47.66;96117.33;1788970;80;21014;-68
2022/05/08 09:24:11;;;;;;;6.30;4.25;;;;;;;20.92;47.47;96117.51;1763066;80;21462;-68
2022/05/08 09:26:41;;;;;;;8.55;4.40;;;;;;;20.88;47.15;96115.44;1789168;80;21047;-68
2022/05/08 09:29:07;;;;;;;5.08;3.80;;;;;;;20.98;48.07;96116.32;1789298;79;21058;-68
2022/05/08 09:31:42;;;;;;;6.12;3.70;;;;;;;20.94;47.32;96117.83;1789499;79;20968;-68
2022/05/08 09:34:09;;;;;;;4.80;3.80;;;;;;;21.03;47.61;96118.30;1788053;80;21497;-67
2022/05/08 09:36:36;;;;;;;6.50;3.87;;;;;;;21.12;47.32;96117.83;1789045;79;21102;-67
2022/05/08 09:39:05;;;;;;;4.33;3.92;;;;;;;21.20;47.30;96118.77;1788703;79;21473;-68
2022/05/08 09:41:39;;;;;;;6.10;4.10;;;;;;;21.27;46.42;96117.02;1789493;80;21050;-67
2022/05/08 09:44:13;;;;;;;4.15;3.75;;;;;;;21.29;46.74;96115.13;1789372;79;21038;-68
2022/05/08 09:46:47;;;;;;;7.78;4.00;;;;;;;21.35;46.13;96111.25;1789276;79;21516;-68
2022/05/08 09:49:23;;;;;;;4.17;3.77;;;;;;;21.32;43.54;96111.41;1788771;80;21007;-68
2022/05/08 09:51:53;;;;;;;4.30;3.90;;;;;;;21.46;45.09;96112.05;1787270;80;21018;-68
2022/05/08 09:54:20;;;;;;;6.95;4.20;;;;;;;21.49;44.63;96110.05;1789133;79;21042;-68
2022/05/08 09:56:49;;;;;;;5.87;4.17;;;;;;;21.65;45.09;96105.22;1789457;79;21009;-68
2022/05/08 09:59:15;;;;;;;6.25;4.22;;;;;;;21.66;43.63;96104.26;1789371;80;21014;-68
2022/05/08 10:01:43;;;;;;;6.42;4.28;;;;;;;21.46;43.41;96101.30;1783177;79;21071;-68
2022/05/08 10:04:10;;;;;;;4.20;3.80;;;;;;;21.57;43.19;96101.58;1780496;80;21004;-68
2022/05/08 10:06:40;;;;;;;5.30;4.78;;;;;;;21.65;43.25;96103.88;1780698;80;21079;-68
2022/05/08 10:14:40;;;;;;;9.00;5.10;;;;;;;21.72;42.96;96102.12;1753149;81;21064;-67
2022/05/08 10:17:08;;;;;;;6.85;5.08;;;;;;;21.59;44.07;96101.02;1780676;80;21036;-68
2022/05/08 10:19:43;;;;;;;6.15;5.05;;;;;;;21.43;45.07;96095.62;1780668;80;20987;-67
2022/05/08 10:22:12;;;;;;;6.50;5.10;;;;;;;21.34;45.15;96105.02;1780240;81;20971;-68
2022/05/08 10:24:53;;;;;;;5.42;4.47;;;;;;;21.16;44.54;96097.91;1780813;80;21007;-68
2022/05/08 10:27:28;;;;;;;7.92;5.10;;;;;;;21.06;44.58;96101.55;1780790;80;21497;-68
2022/05/08 10:30:02;;;;;;;9.00;5.20;;;;;;;20.95;44.34;96098.56;1780826;80;21505;-68
2022/05/08 10:32:34;;;;;;;6.90;4.97;;;;;;;20.80;43.99;96101.56;1780761;80;20952;-68
2022/05/08 10:35:19;;;;;;;9.73;6.30;;;;;;;20.74;44.67;96100.06;1780884;81;20983;-70
2022/05/08 10:37:54;;;;;;;12.25;6.83;;;;;;;20.74;44.31;96104.56;1780742;80;21512;-69
2022/05/08 10:40:29;;;;;;;10.40;5.53;;;;;;;20.73;43.80;96098.31;1774714;81;21039;-69
2022/05/08 10:43:18;;;;;;;7.87;5.25;;;;;;;20.66;41.92;96105.41;1780609;81;21528;-69
2022/05/08 10:45:46;;;;;;;9.98;5.47;;;;;;;20.70;41.97;96098.47;1748385;81;21157;-70
2022/05/08 10:48:22;;;;;;;16.23;8.70;;;;;;;20.72;41.15;96101.95;1780688;80;21131;-70
2022/05/08 10:50:53;;;;;;;6.92;6.22;;;;;;;20.83;42.30;96090.67;1780648;80;21007;-70
2022/05/08 10:53:32;;;;;;;6.33;4.10;;;;;;;20.95;42.80;96091.37;1780657;80;21127;-70
2022/05/08 10:56:06;;;;;;;6.20;3.60;;;;;;;21.03;42.41;96085.61;1780581;81;21011;-70
2022/05/08 10:58:41;;;;;;;4.40;3.35;;;;;;;21.14;41.33;96084.59;1780111;80;21067;-70
2022/05/08 11:01:09;;;;;;;4.97;4.10;;;;;;;21.30;42.43;96081.09;1755509;79;21480;-70
2022/05/08 11:03:37;;;;;;;3.95;3.10;;;;;;;21.51;43.17;96082.65;1803652;79;21128;-70
2022/05/08 11:06:06;;;;;;;5.45;3.67;;;;;;;21.74;42.90;96078.70;1803952;79;20959;-69
2022/05/08 11:08:35;;;;;;;7.50;4.20;;;;;;;21.90;44.46;96073.81;1803884;79;21484;-70
2022/05/08 11:11:09;;;;;;;5.72;3.95;;;;;;;22.03;41.64;96069.52;1803742;79;20997;-70
2022/05/08 11:13:46;;;;;;;6.35;4.60;;;;;;;22.18;41.11;96072.67;1803977;79;21006;-70
2022/05/08 11:16:33;;;;;;;8.03;4.33;;;;;;;22.34;42.00;96071.34;1803987;79;21037;-70
2022/05/08 11:19:03;;;;;;;7.08;4.45;;;;;;;22.52;41.72;96063.16;1803825;79;21037;-70
2022/05/08 11:21:31;;;;;;;4.40;4.00;;;;;;;22.57;42.10;96060.59;1804096;79;21475;-70
2022/05/08 11:23:57;;;;;;;7.00;4.45;;;;;;;22.67;41.10;96057.73;1803822;79;21041;-70
2022/05/08 11:26:34;;;;;;;4.75;4.25;;;;;;;22.82;42.85;96060.48;1803959;79;21034;-70
2022/05/08 11:29:01;;;;;;;8.95;4.35;;;;;;;22.88;42.17;96059.66;1804052;79;21046;-70
2022/05/08 11:31:28;;;;;;;4.00;3.70;;;;;;;22.89;42.69;96064.55;1803824;79;20962;-70
2022/05/08 11:36:44;;;;;;;5.90;4.00;;;;;;;22.64;41.51;96063.31;1804084;79;20970;-70
2022/05/08 11:39:14;;;;;;;5.15;3.85;;;;;;;22.49;42.46;96066.90;1803614;79;21013;-70
2022/05/08 11:41:47;;;;;;;5.10;4.60;;;;;;;22.49;44.41;96064.70;1803940;79;21025;-70
2022/05/08 11:44:27;;;;;;;4.30;3.90;;;;;;;22.41;43.87;96063.80;1803882;79;21523;-70
2022/05/08 11:46:56;;;;;;;5.37;4.35;;;;;;;22.34;44.19;96061.07;1803823;79;20967;-70
2022/05/08 11:49:31;;;;;;;5.58;4.50;;;;;;;22.27;43.35;96059.69;1804006;79;21057;-70
2022/05/08 11:52:04;;;;;;;7.92;4.15;;;;;;;22.24;42.71;96052.66;1803922;79;21016;-70
2022/05/08 11:54:37;;;;;;;6.30;4.45;;;;;;;22.32;44.37;96059.80;1803815;79;21527;-70
2022/05/08 11:57:18;;;;;;;4.75;4.22;;;;;;;22.41;42.02;96066.48;1803931;79;21448;-70
2022/05/08 11:59:49;;;;;;;6.00;4.40;;;;;;;22.42;41.83;96060.14;1804001;79;21029;-70
2022/05/08 12:02:18;;;;;;;10.35;5.17;;;;;;;22.39;41.20;96061.67;1789401;79;21497;-70
2022/05/08 12:04:58;;;;;;;4.87;4.30;;;;;;;22.36;40.79;96068.09;1780480;80;21054;-70
2022/05/08 12:07:25;;;;;;;5.15;4.15;;;;;;;22.39;42.17;96065.70;1780859;80;20983;-70
2022/05/08 12:09:55;;;;;;;5.22;4.30;;;;;;;22.43;40.77;96064.58;1748097;81;21087;-70
2022/05/08 12:12:26;;;;;;;5.00;4.50;;;;;;;22.43;41.68;96071.30;1780766;80;21042;-70
2022/05/08 12:15:03;;;;;;;8.55;4.80;;;;;;;22.26;40.63;96069.58;1780776;80;21506;-70